Time;durP1;ratioP1;P1;durP2;ratioP2;P2;SDS_P1;SDS_P2;PMS_P1;PMS_P2;Temp;Humidity;BMP_temperature;BMP_pressure;BME280_temperature;BME280_humidity;BME280_pressure;Samples;Min_cycle;Max_cycle;Signal;HPM_P1;HPM_P2
2021/04/07 00:01:46;;;;;;;3.53;2.23;;;;;;;2.72;64.44;94947.38;5038225;28;20236;-80
2021/04/07 00:04:12;;;;;;;4.23;2.13;;;;;;;2.66;64.43;94953.84;5035838;28;20654;-80
2021/04/07 00:06:40;;;;;;;3.33;2.30;;;;;;;2.60;64.16;94951.06;5032204;28;20206;-81
2021/04/07 00:09:07;;;;;;;2.93;2.13;;;;;;;2.62;64.21;94962.69;5036596;28;20221;-80
2021/04/07 00:11:33;;;;;;;2.20;1.93;;;;;;;2.64;64.42;94955.72;5040526;28;20300;-81
2021/04/07 00:14:00;;;;;;;2.80;2.20;;;;;;;2.62;64.09;94962.69;5047163;28;20240;-80
2021/04/07 00:16:26;;;;;;;3.83;2.50;;;;;;;2.58;63.72;94958.03;5051905;28;20227;-82
2021/04/07 00:18:53;;;;;;;3.17;2.40;;;;;;;2.62;63.48;94954.28;5051561;28;20233;-81
2021/04/07 00:21:19;;;;;;;4.57;2.53;;;;;;;2.67;64.30;94959.72;5051672;28;20202;-82
2021/04/07 00:23:45;;;;;;;2.50;2.13;;;;;;;2.68;64.44;94954.50;5051818;28;20229;-80
2021/04/07 00:26:11;;;;;;;4.37;2.30;;;;;;;2.50;64.65;94961.31;5034074;28;20685;-82
2021/04/07 00:28:37;;;;;;;3.00;2.20;;;;;;;2.54;64.41;94960.06;5031570;28;20917;-82
2021/04/07 00:31:03;;;;;;;3.90;2.37;;;;;;;2.61;64.67;94963.63;5043777;28;20230;-82
2021/04/07 00:33:29;;;;;;;3.20;2.50;;;;;;;2.67;64.40;94958.00;5052154;28;20726;-82
2021/04/07 00:35:56;;;;;;;2.90;2.60;;;;;;;2.72;64.51;94965.97;5036572;28;20253;-80
2021/04/07 00:38:22;;;;;;;2.47;2.13;;;;;;;2.79;64.52;94963.66;5040040;28;20225;-80
2021/04/07 00:40:49;;;;;;;3.37;2.60;;;;;;;2.65;64.88;94961.63;5048779;28;20232;-80
2021/04/07 00:43:15;;;;;;;2.70;2.20;;;;;;;2.62;64.84;94960.16;5050607;28;20714;-82
2021/04/07 00:45:41;;;;;;;3.07;2.40;;;;;;;2.49;65.46;94961.44;5040781;28;20203;-80
2021/04/07 00:48:08;;;;;;;2.97;2.10;;;;;;;2.55;65.43;94976.09;5050317;28;20202;-82
2021/04/07 00:50:34;;;;;;;2.90;2.50;;;;;;;2.41;66.35;94967.22;5048982;28;20833;-79
2021/04/07 00:53:01;;;;;;;4.27;2.60;;;;;;;2.48;66.41;94964.94;5050790;28;20226;-80
2021/04/07 00:55:29;;;;;;;2.73;2.43;;;;;;;2.55;66.44;94973.56;5038849;28;20221;-80
2021/04/07 00:57:56;;;;;;;3.23;2.60;;;;;;;2.52;66.84;94971.31;5031226;28;20238;-82
2021/04/07 01:00:23;;;;;;;2.70;2.50;;;;;;;2.55;66.88;94971.03;5038899;28;20229;-82
2021/04/07 01:02:52;;;;;;;4.43;2.93;;;;;;;2.58;66.61;94974.09;5050897;28;20301;-80
2021/04/07 01:05:18;;;;;;;5.13;2.53;;;;;;;2.57;66.47;94972.47;5042521;28;20303;-79
2021/04/07 01:07:44;;;;;;;3.43;2.70;;;;;;;2.56;66.82;94977.72;5030657;28;20226;-80
2021/04/07 01:10:13;;;;;;;3.33;2.40;;;;;;;2.57;66.30;94979.31;5036799;28;20228;-81
2021/04/07 01:12:43;;;;;;;5.00;2.87;;;;;;;2.54;67.43;94977.03;5050229;28;20198;-79
2021/04/07 01:15:09;;;;;;;3.20;2.73;;;;;;;2.53;67.70;94977.97;5050413;28;20197;-80
2021/04/07 01:17:35;;;;;;;4.33;2.93;;;;;;;2.59;67.05;94969.81;5048584;28;20251;-80
2021/04/07 01:20:04;;;;;;;4.00;2.70;;;;;;;2.59;67.24;94972.34;5043413;28;20225;-81
2021/04/07 01:22:32;;;;;;;5.30;2.60;;;;;;;2.46;68.25;94976.97;5030105;28;20225;-80
2021/04/07 01:24:59;;;;;;;3.87;2.93;;;;;;;2.41;68.31;94977.38;5036049;28;20221;-82
2021/04/07 01:27:25;;;;;;;4.43;2.87;;;;;;;2.40;68.45;94974.06;5050263;28;20215;-79
2021/04/07 01:29:51;;;;;;;3.87;2.90;;;;;;;2.50;67.89;94975.75;5043964;28;20230;-80
2021/04/07 01:32:17;;;;;;;2.80;2.53;;;;;;;2.53;67.51;94972.91;5029360;28;20306;-81
2021/04/07 01:34:45;;;;;;;4.50;2.97;;;;;;;2.62;66.96;94977.16;5032100;28;20288;-81
2021/04/07 01:37:12;;;;;;;3.23;2.60;;;;;;;2.64;67.04;94976.06;5049259;28;20225;-80
2021/04/07 01:39:38;;;;;;;4.03;2.80;;;;;;;2.71;66.87;94977.06;5031031;28;20232;-81
2021/04/07 01:42:06;;;;;;;4.43;3.03;;;;;;;2.74;67.24;94970.91;5050247;28;20206;-81
2021/04/07 01:44:33;;;;;;;5.17;3.07;;;;;;;2.73;66.69;94965.03;5031147;28;20230;-82
2021/04/07 01:47:00;;;;;;;3.23;2.87;;;;;;;2.77;66.70;94966.34;5038471;28;20299;-79
2021/04/07 01:49:27;;;;;;;5.57;3.40;;;;;;;2.80;66.32;94965.25;5032440;28;20225;-81
2021/04/07 01:51:53;;;;;;;5.70;3.20;;;;;;;2.78;65.87;94975.56;5048689;28;20236;-82
2021/04/07 01:54:19;;;;;;;3.03;2.73;;;;;;;2.61;65.83;94965.38;5033791;28;20256;-82
2021/04/07 01:56:46;;;;;;;4.40;2.90;;;;;;;2.62;66.00;94970.31;5043486;28;20221;-81
2021/04/07 01:59:14;;;;;;;2.70;2.50;;;;;;;2.48;66.54;94975.09;5048063;28;20253;-80
2021/04/07 02:01:40;;;;;;;5.07;2.80;;;;;;;2.45;66.59;94970.28;5029207;28;20305;-79
2021/04/07 02:04:06;;;;;;;4.87;2.90;;;;;;;2.49;66.81;94972.41;5029184;28;20341;-80
2021/04/07 02:06:34;;;;;;;3.00;2.57;;;;;;;2.34;66.43;94974.59;5046450;28;20591;-81
2021/04/07 02:09:00;;;;;;;5.17;2.80;;;;;;;2.38;66.36;94968.31;5035196;28;20226;-80
2021/04/07 02:11:26;;;;;;;3.47;3.17;;;;;;;2.39;65.71;94972.44;5043943;28;20225;-81
2021/04/07 02:13:53;;;;;;;3.57;2.73;;;;;;;2.27;65.31;94971.06;5048547;28;20283;-79
2021/04/07 02:16:20;;;;;;;2.97;2.50;;;;;;;2.27;65.87;94962.63;5049182;28;20217;-78
2021/04/07 02:18:46;;;;;;;3.73;2.70;;;;;;;2.19;65.50;94972.69;5038358;28;20225;-80
2021/04/07 02:21:12;;;;;;;4.57;3.10;;;;;;;2.21;65.50;94970.81;5042193;28;20194;-82
2021/04/07 02:23:39;;;;;;;3.97;2.97;;;;;;;2.14;65.30;94975.63;5040439;28;20214;-79
2021/04/07 02:26:05;;;;;;;3.63;2.93;;;;;;;2.17;65.47;94975.34;5036329;28;20630;-81
2021/04/07 02:28:32;;;;;;;3.73;2.73;;;;;;;2.18;65.16;94971.88;5049677;28;20232;-81
2021/04/07 02:30:57;;;;;;;3.67;2.57;;;;;;;2.21;65.04;94974.16;5036388;28;20229;-80
2021/04/07 02:33:24;;;;;;;3.20;2.60;;;;;;;2.17;65.08;94972.81;5029304;28;20206;-79
2021/04/07 02:35:51;;;;;;;3.17;2.90;;;;;;;2.22;65.14;94970.66;5029798;28;20764;-80
2021/04/07 02:38:17;;;;;;;3.67;3.10;;;;;;;2.21;65.12;94973.34;5028288;28;20653;-82
2021/04/07 02:40:43;;;;;;;3.27;2.70;;;;;;;2.22;64.38;94980.03;5028830;28;20237;-80
2021/04/07 02:43:09;;;;;;;3.13;2.87;;;;;;;2.14;64.26;94974.81;5028624;28;20279;-81
2021/04/07 02:45:36;;;;;;;3.77;2.90;;;;;;;2.20;64.34;94982.69;5043437;28;20204;-81
2021/04/07 02:48:02;;;;;;;2.93;2.70;;;;;;;2.19;64.34;94972.69;5052388;28;20213;-81
2021/04/07 02:50:29;;;;;;;3.03;2.70;;;;;;;2.11;63.91;94983.56;5038656;28;20721;-79
2021/04/07 02:52:55;;;;;;;3.23;2.87;;;;;;;2.12;64.25;94979.28;5032342;28;20233;-82
2021/04/07 02:55:22;;;;;;;5.60;3.20;;;;;;;2.04;64.74;94983.31;5044141;28;20224;-81
2021/04/07 02:57:48;;;;;;;3.13;2.83;;;;;;;2.13;64.68;94989.25;5033005;28;20217;-78
2021/04/07 03:00:15;;;;;;;5.20;2.90;;;;;;;2.10;64.39;94989.56;5042690;28;20582;-82
2021/04/07 03:02:42;;;;;;;3.93;2.63;;;;;;;2.07;63.64;94987.31;5052496;28;20229;-81
2021/04/07 03:05:09;;;;;;;3.67;2.80;;;;;;;2.02;64.03;94990.25;5042810;28;20226;-80
2021/04/07 03:07:39;;;;;;;3.13;2.70;;;;;;;2.02;63.17;94995.31;5032540;28;20222;-82
2021/04/07 03:10:06;;;;;;;3.40;3.10;;;;;;;1.93;62.77;94993.59;5040161;28;20236;-79
2021/04/07 03:12:32;;;;;;;3.37;3.07;;;;;;;1.94;62.37;94997.75;5052817;28;20193;-81
2021/04/07 03:14:58;;;;;;;4.50;2.70;;;;;;;1.99;63.16;95002.41;5051739;28;20228;-81
2021/04/07 03:17:24;;;;;;;3.00;2.57;;;;;;;1.94;62.41;95004.56;5052000;28;20252;-82
2021/04/07 03:19:50;;;;;;;2.80;2.60;;;;;;;1.98;63.00;94996.53;5044089;28;20224;-79
2021/04/07 03:22:16;;;;;;;3.17;2.67;;;;;;;1.98;63.50;95004.16;5031892;28;20336;-82
2021/04/07 03:24:43;;;;;;;3.57;2.97;;;;;;;1.96;63.06;95016.19;5037658;28;20209;-80
2021/04/07 03:27:09;;;;;;;3.07;2.50;;;;;;;1.78;64.08;95012.75;5051451;28;20289;-82
2021/04/07 03:29:35;;;;;;;2.63;2.43;;;;;;;1.86;63.96;95020.50;5035678;28;20752;-81
2021/04/07 03:32:01;;;;;;;3.03;2.70;;;;;;;1.93;64.12;95023.25;5051410;28;20229;-82
2021/04/07 03:34:27;;;;;;;2.87;2.57;;;;;;;1.97;63.37;95022.84;5032455;28;20256;-82
2021/04/07 03:36:53;;;;;;;2.83;2.63;;;;;;;1.96;64.35;95028.06;5038357;28;22513;-81
2021/04/07 03:39:19;;;;;;;3.33;2.50;;;;;;;1.85;64.72;95030.78;5051372;28;20229;-81
2021/04/07 03:41:46;;;;;;;4.77;2.50;;;;;;;1.84;64.63;95036.78;5051787;28;20248;-80
2021/04/07 03:44:12;;;;;;;2.87;2.60;;;;;;;1.88;65.24;95044.00;5051261;28;20229;-79
2021/04/07 03:46:38;;;;;;;2.73;2.47;;;;;;;1.89;65.46;95047.34;5038199;28;20467;-80
2021/04/07 03:49:04;;;;;;;2.60;2.40;;;;;;;1.90;65.20;95047.22;5050943;28;20304;-81
2021/04/07 03:51:30;;;;;;;2.77;2.53;;;;;;;1.89;65.07;95044.81;5031676;28;20206;-81
2021/04/07 03:53:56;;;;;;;3.23;2.50;;;;;;;1.85;65.39;95046.00;5031966;28;20225;-81
2021/04/07 03:56:22;;;;;;;2.80;2.60;;;;;;;1.87;65.67;95044.13;5041342;28;20236;-79
2021/04/07 03:58:49;;;;;;;2.70;2.50;;;;;;;1.79;65.26;95049.88;5050357;28;20791;-80
2021/04/07 04:01:15;;;;;;;3.87;2.40;;;;;;;1.81;65.03;95057.34;5031474;28;20226;-82
2021/04/07 04:03:41;;;;;;;2.90;2.53;;;;;;;1.87;65.17;95060.16;5043911;28;20750;-82
2021/04/07 04:06:07;;;;;;;2.57;2.37;;;;;;;1.89;64.69;95065.91;5050029;28;20198;-82
2021/04/07 04:08:33;;;;;;;2.47;2.27;;;;;;;1.94;64.55;95068.00;5037338;28;20832;-81
2021/04/07 04:10:59;;;;;;;3.17;2.23;;;;;;;1.93;63.75;95079.09;5029851;28;20297;-81
2021/04/07 04:13:25;;;;;;;3.00;2.20;;;;;;;1.96;63.67;95079.63;5042045;28;20308;-83
2021/04/07 04:15:52;;;;;;;3.73;2.50;;;;;;;1.98;63.63;95085.38;5036935;28;20202;-83
2021/04/07 04:18:18;;;;;;;3.47;2.80;;;;;;;1.96;63.34;95086.44;5049849;28;20221;-80
2021/04/07 04:20:44;;;;;;;11.80;8.90;;;;;;;1.99;63.37;95094.59;5050206;28;20312;-79
2021/04/07 04:23:10;;;;;;;3.07;2.57;;;;;;;1.86;63.71;95096.63;5033861;28;20252;-81
2021/04/07 04:25:36;;;;;;;2.30;2.10;;;;;;;1.87;63.42;95093.16;5031456;28;20221;-80
2021/04/07 04:28:02;;;;;;;2.83;2.63;;;;;;;1.95;63.19;95100.88;5046573;28;20739;-79
2021/04/07 04:30:29;;;;;;;5.30;2.60;;;;;;;1.91;63.38;95103.84;5050084;28;20228;-81
2021/04/07 04:32:56;;;;;;;2.83;2.63;;;;;;;1.97;63.49;95114.25;5039258;28;20592;-80
2021/04/07 04:35:22;;;;;;;2.90;2.67;;;;;;;1.92;63.97;95118.94;5030934;28;20232;-80
2021/04/07 04:37:49;;;;;;;3.63;2.90;;;;;;;1.91;64.25;95116.53;5041471;28;20233;-81
2021/04/07 04:40:16;;;;;;;4.37;2.70;;;;;;;1.94;63.69;95124.66;5029835;28;20303;-80
2021/04/07 04:42:42;;;;;;;2.93;2.63;;;;;;;1.90;63.51;95114.94;5041992;28;20200;-81
2021/04/07 04:45:09;;;;;;;2.80;2.57;;;;;;;1.91;63.56;95122.41;5050734;28;20206;-82
2021/04/07 04:47:36;;;;;;;3.13;2.83;;;;;;;1.82;64.33;95133.38;5047268;28;20237;-82
2021/04/07 04:50:04;;;;;;;18.80;12.87;;;;;;;1.77;64.99;95132.16;5050634;28;20268;-82
2021/04/07 04:52:29;;;;;;;11.53;8.17;;;;;;;1.83;64.59;95144.31;5047113;28;20220;-79
2021/04/07 04:54:56;;;;;;;3.93;3.53;;;;;;;1.90;64.95;95143.66;5029063;28;20312;-80
2021/04/07 04:57:22;;;;;;;5.80;3.07;;;;;;;1.85;65.27;95152.59;5043091;28;20274;-78
2021/04/07 04:59:48;;;;;;;3.33;3.03;;;;;;;1.81;65.65;95156.34;5046738;28;20643;-80
2021/04/07 05:02:14;;;;;;;3.87;2.80;;;;;;;1.78;66.25;95162.47;5046883;28;20221;-81
2021/04/07 05:04:40;;;;;;;3.40;3.10;;;;;;;1.72;66.75;95165.56;5038714;28;20249;-80
2021/04/07 05:07:07;;;;;;;3.43;3.13;;;;;;;1.69;67.03;95169.16;5041266;28;20309;-78
2021/04/07 05:09:32;;;;;;;3.73;3.03;;;;;;;1.73;67.77;95169.72;5046082;28;20582;-79
2021/04/07 05:11:58;;;;;;;5.17;3.30;;;;;;;1.82;67.99;95176.50;5048696;28;20225;-81
2021/04/07 05:14:25;;;;;;;4.13;3.20;;;;;;;1.97;67.28;95180.25;5040676;28;20229;-80
2021/04/07 05:16:51;;;;;;;4.40;3.10;;;;;;;1.99;67.15;95178.38;5047034;28;20923;-81
2021/04/07 05:19:17;;;;;;;3.77;3.10;;;;;;;2.02;67.33;95179.84;5044094;28;20229;-82
2021/04/07 05:21:43;;;;;;;3.33;3.03;;;;;;;2.13;66.54;95184.78;5029076;28;20201;-80
2021/04/07 05:24:10;;;;;;;3.37;2.83;;;;;;;2.14;67.27;95185.56;5046757;28;20730;-81
2021/04/07 05:26:36;;;;;;;5.00;3.30;;;;;;;2.23;67.00;95187.31;5040316;28;20345;-81
2021/04/07 05:29:02;;;;;;;3.23;2.93;;;;;;;2.22;66.55;95195.88;5030005;28;20229;-79
2021/04/07 05:31:28;;;;;;;3.60;3.30;;;;;;;2.23;66.90;95190.66;5041443;28;20218;-82
2021/04/07 05:33:54;;;;;;;3.50;3.20;;;;;;;2.16;66.45;95194.66;5050454;28;20232;-80
2021/04/07 05:36:20;;;;;;;3.23;2.93;;;;;;;2.20;66.36;95196.00;5034154;28;20286;-79
2021/04/07 05:38:46;;;;;;;3.27;3.00;;;;;;;2.24;65.49;95204.97;5042684;28;20256;-78
2021/04/07 05:41:14;;;;;;;3.60;3.30;;;;;;;2.34;65.34;95210.03;5041177;28;20225;-78
2021/04/07 05:43:40;;;;;;;3.73;3.23;;;;;;;2.33;65.88;95216.84;5034211;28;20221;-80
2021/04/07 05:46:08;;;;;;;3.50;3.23;;;;;;;2.20;66.58;95215.53;5046040;28;20775;-78
2021/04/07 05:48:34;;;;;;;3.93;3.37;;;;;;;2.15;67.69;95222.72;5048192;28;20201;-79
2021/04/07 05:51:00;;;;;;;4.10;3.30;;;;;;;2.00;70.31;95230.75;5046447;28;20233;-81
2021/04/07 05:53:27;;;;;;;3.60;2.73;;;;;;;2.01;70.90;95239.19;5045903;28;20607;-82
2021/04/07 05:55:54;;;;;;;3.33;3.03;;;;;;;1.95;71.15;95239.69;5048285;28;20222;-81
2021/04/07 05:58:22;;;;;;;3.53;3.23;;;;;;;1.85;72.76;95244.78;5047834;28;20275;-82
2021/04/07 06:00:49;;;;;;;3.97;3.57;;;;;;;1.96;72.47;95249.72;5043427;28;20213;-81
2021/04/07 06:03:16;;;;;;;3.47;2.90;;;;;;;2.00;71.48;95250.25;5049047;28;20205;-82
2021/04/07 06:05:44;;;;;;;3.30;3.00;;;;;;;2.05;71.10;95254.00;5049296;28;20228;-82
2021/04/07 06:08:10;;;;;;;3.40;3.13;;;;;;;2.09;71.00;95264.72;5039720;28;20590;-82
2021/04/07 06:10:38;;;;;;;3.47;3.17;;;;;;;2.13;70.11;95262.69;5028582;28;20233;-82
2021/04/07 06:13:05;;;;;;;3.37;3.00;;;;;;;2.12;70.25;95266.19;5030501;28;20244;-82
2021/04/07 06:15:32;;;;;;;3.77;3.23;;;;;;;2.07;69.83;95272.47;5046488;28;20198;-80
2021/04/07 06:18:00;;;;;;;3.73;3.23;;;;;;;2.07;68.71;95280.09;5047965;28;20221;-81
2021/04/07 06:20:29;;;;;;;3.17;2.93;;;;;;;2.12;68.93;95284.75;5048457;28;20237;-81
2021/04/07 06:22:56;;;;;;;3.60;3.30;;;;;;;2.17;68.38;95286.88;5044030;28;20241;-81
2021/04/07 06:25:23;;;;;;;3.53;3.23;;;;;;;2.23;68.07;95286.38;5052256;28;20220;-81
2021/04/07 06:27:50;;;;;;;3.83;3.33;;;;;;;2.23;67.36;95294.78;5053062;28;20753;-81
2021/04/07 06:30:18;;;;;;;3.30;3.00;;;;;;;2.23;66.81;95302.41;5050275;28;20217;-81
2021/04/07 06:32:45;;;;;;;4.93;3.10;;;;;;;2.32;66.92;95305.88;5033067;28;20276;-81
2021/04/07 06:35:12;;;;;;;3.27;2.97;;;;;;;2.30;66.89;95308.56;5033670;28;20226;-81
2021/04/07 06:37:38;;;;;;;3.30;3.00;;;;;;;2.26;67.27;95316.59;5032781;28;20229;-81
2021/04/07 06:40:06;;;;;;;3.27;2.97;;;;;;;2.36;67.16;95320.72;5034680;28;20226;-82
2021/04/07 06:42:44;;;;;;;3.30;3.00;;;;;;;2.41;66.71;95330.50;5034910;28;20257;-81
2021/04/07 06:45:12;;;;;;;3.23;2.97;;;;;;;2.39;65.08;95328.09;5046701;28;20225;-81
2021/04/07 06:47:40;;;;;;;3.00;2.80;;;;;;;2.39;65.16;95337.44;5051026;28;20240;-82
2021/04/07 06:50:08;;;;;;;4.03;3.00;;;;;;;2.43;65.74;95342.13;5052134;28;20221;-81
2021/04/07 06:52:34;;;;;;;3.00;2.80;;;;;;;2.43;64.93;95347.22;5052127;28;20744;-81
2021/04/07 06:55:00;;;;;;;3.77;3.37;;;;;;;2.53;64.45;95351.47;5033392;28;20221;-82
2021/04/07 06:57:26;;;;;;;3.30;3.00;;;;;;;2.38;63.87;95348.53;5038820;28;20189;-80
2021/04/07 06:59:52;;;;;;;4.93;3.50;;;;;;;2.45;63.77;95358.97;5051431;28;20591;-81
2021/04/07 07:02:18;;;;;;;3.10;2.80;;;;;;;2.40;62.61;95351.75;5052537;28;20224;-82
2021/04/07 07:04:44;;;;;;;3.37;2.63;;;;;;;2.36;63.18;95366.44;5032696;28;20289;-81
2021/04/07 07:07:11;;;;;;;3.83;3.10;;;;;;;2.21;63.11;95364.41;5033438;28;20280;-81
2021/04/07 07:09:37;;;;;;;3.40;3.10;;;;;;;2.24;63.77;95371.78;5031949;28;20233;-81
2021/04/07 07:12:04;;;;;;;3.77;3.37;;;;;;;2.28;64.15;95366.31;5037452;28;20289;-81
2021/04/07 07:14:31;;;;;;;3.70;3.00;;;;;;;2.38;63.55;95379.81;5034273;28;20245;-82
2021/04/07 07:16:57;;;;;;;3.40;3.10;;;;;;;2.38;62.80;95376.47;5052318;28;20229;-82
2021/04/07 07:19:24;;;;;;;4.47;3.10;;;;;;;2.39;61.79;95381.44;5051861;28;20232;-81
2021/04/07 07:21:54;;;;;;;3.00;2.80;;;;;;;2.51;61.94;95388.94;5052124;28;20271;-81
2021/04/07 07:24:32;;;;;;;3.63;2.80;;;;;;;2.45;60.19;95397.09;5038888;28;20711;-82
2021/04/07 07:26:58;;;;;;;4.90;3.40;;;;;;;2.57;59.60;95394.28;5044694;28;20240;-82
2021/04/07 07:29:26;;;;;;;2.87;2.67;;;;;;;2.50;59.31;95405.13;5051759;28;20274;-82
2021/04/07 07:32:01;;;;;;;3.80;2.87;;;;;;;2.68;58.96;95406.09;5045774;28;20217;-82
2021/04/07 07:34:28;;;;;;;3.07;2.77;;;;;;;2.82;58.22;95408.22;5052034;28;20274;-82
2021/04/07 07:36:56;;;;;;;3.07;2.67;;;;;;;2.90;58.38;95405.00;5054087;28;20256;-82
2021/04/07 07:39:26;;;;;;;3.20;2.90;;;;;;;2.90;58.23;95410.91;5060974;28;20221;-82
2021/04/07 07:41:58;;;;;;;3.63;3.20;;;;;;;3.20;58.28;95412.50;5052132;28;20339;-82
2021/04/07 07:44:25;;;;;;;3.73;3.20;;;;;;;3.50;56.50;95419.13;5050422;28;20307;-82
2021/04/07 07:46:57;;;;;;;3.50;3.20;;;;;;;3.79;56.04;95414.00;5052149;28;20267;-82
2021/04/07 07:49:23;;;;;;;3.30;3.00;;;;;;;3.66;56.28;95421.91;5047764;28;20706;-81
2021/04/07 07:51:50;;;;;;;3.40;3.10;;;;;;;3.96;55.84;95420.09;5051898;28;20208;-82
2021/04/07 07:54:17;;;;;;;3.20;2.90;;;;;;;4.07;55.82;95430.09;5043911;28;20194;-83
2021/04/07 07:56:44;;;;;;;3.50;3.03;;;;;;;4.31;55.52;95427.03;5038780;28;20384;-82
2021/04/07 07:59:11;;;;;;;4.10;3.23;;;;;;;3.96;57.31;95443.00;5042718;28;20782;-83
2021/04/07 08:01:41;;;;;;;4.70;3.40;;;;;;;3.65;61.45;95450.06;5036458;28;20262;-82
2021/04/07 08:04:07;;;;;;;4.10;3.70;;;;;;;3.59;61.60;95453.97;5053485;28;20237;-82
2021/04/07 08:06:33;;;;;;;6.20;3.87;;;;;;;3.54;61.71;95460.41;5036930;28;20241;-82
2021/04/07 08:09:00;;;;;;;3.57;3.27;;;;;;;3.31;61.84;95463.22;5036726;28;20309;-82
2021/04/07 08:11:26;;;;;;;4.17;3.43;;;;;;;3.08;62.09;95464.44;5042513;28;20221;-83
2021/04/07 08:13:53;;;;;;;4.03;3.63;;;;;;;3.13;62.33;95478.38;5036994;28;20225;-82
2021/04/07 08:16:21;;;;;;;3.53;3.23;;;;;;;3.15;61.76;95473.16;5053038;28;20225;-82
2021/04/07 08:18:49;;;;;;;4.17;3.50;;;;;;;3.30;61.39;95483.72;5043501;28;20220;-83
2021/04/07 08:21:17;;;;;;;3.83;3.50;;;;;;;3.42;60.44;95478.38;5033230;28;20233;-82
2021/04/07 08:23:44;;;;;;;3.20;2.90;;;;;;;3.35;59.80;95476.50;5033078;28;20226;-82
2021/04/07 08:26:14;;;;;;;3.60;3.30;;;;;;;3.36;59.86;95491.63;5038487;28;20217;-83
2021/04/07 08:28:42;;;;;;;3.43;3.03;;;;;;;3.35;60.70;95492.56;5037131;28;20259;-82
2021/04/07 08:31:12;;;;;;;4.03;3.10;;;;;;;3.23;60.40;95497.94;5047811;28;20225;-82
2021/04/07 08:33:43;;;;;;;3.13;2.87;;;;;;;3.59;61.64;95488.78;5052030;28;20692;-80
2021/04/07 08:36:10;;;;;;;3.40;2.90;;;;;;;4.22;59.12;95494.94;5043246;28;20627;-80
2021/04/07 08:38:36;;;;;;;3.70;2.57;;;;;;;4.71;55.38;95498.06;5050934;28;20229;-82
2021/04/07 08:41:10;;;;;;;3.67;2.77;;;;;;;4.89;54.89;95487.91;5040828;28;20271;-82
2021/04/07 08:43:37;;;;;;;3.83;2.80;;;;;;;5.23;52.90;95491.41;5031581;28;20301;-82
2021/04/07 08:46:14;;;;;;;3.70;2.67;;;;;;;5.29;52.38;95498.50;5040120;28;20232;-82
2021/04/07 08:48:41;;;;;;;4.93;2.90;;;;;;;4.97;52.25;95500.75;5051346;28;20808;-82
2021/04/07 08:51:10;;;;;;;3.27;2.90;;;;;;;4.96;52.94;95494.84;5049083;28;20228;-83
2021/04/07 08:53:39;;;;;;;4.13;2.77;;;;;;;5.36;51.68;95506.38;5051287;28;20562;-82
2021/04/07 08:56:07;;;;;;;4.40;2.80;;;;;;;5.60;51.04;95513.44;5039951;28;20237;-82
2021/04/07 08:58:34;;;;;;;3.33;2.90;;;;;;;5.88;50.23;95518.31;5045331;28;20236;-83
2021/04/07 09:01:01;;;;;;;3.60;3.10;;;;;;;6.05;50.70;95513.31;5047505;28;20244;-82
2021/04/07 09:03:28;;;;;;;3.60;3.30;;;;;;;5.85;49.86;95512.69;5052002;28;20201;-82
2021/04/07 09:05:55;;;;;;;3.30;3.00;;;;;;;5.84;49.31;95506.75;5043307;28;20229;-82
2021/04/07 09:08:22;;;;;;;3.00;2.70;;;;;;;5.41;50.47;95527.97;5040373;28;20224;-82
2021/04/07 09:10:50;;;;;;;3.10;2.30;;;;;;;4.83;54.25;95528.34;5030824;28;20234;-82
2021/04/07 09:13:21;;;;;;;3.20;2.00;;;;;;;4.38;55.78;95533.38;5038250;28;20225;-82
2021/04/07 09:15:52;;;;;;;3.13;2.37;;;;;;;4.50;56.85;95524.59;5040313;28;20205;-82
2021/04/07 09:18:30;;;;;;;3.77;2.50;;;;;;;4.79;55.17;95521.13;5048436;28;20611;-82
2021/04/07 09:20:58;;;;;;;3.57;2.50;;;;;;;5.62;52.65;95534.53;5049483;28;20296;-83
2021/04/07 09:23:28;;;;;;;2.43;2.23;;;;;;;6.23;51.79;95537.06;5050760;28;20225;-83
2021/04/07 09:25:56;;;;;;;2.60;2.40;;;;;;;6.70;50.12;95523.91;5050732;28;20275;-82
2021/04/07 09:28:36;;;;;;;2.73;2.20;;;;;;;6.85;45.90;95520.59;5050652;28;20225;-83
2021/04/07 09:31:11;;;;;;;3.20;2.60;;;;;;;6.94;45.07;95529.88;5048930;28;20331;-82
2021/04/07 09:33:40;;;;;;;3.13;2.47;;;;;;;6.57;46.79;95540.44;5032599;28;20194;-82
2021/04/07 09:36:08;;;;;;;2.20;2.00;;;;;;;5.60;46.64;95546.63;5036533;28;20202;-82
2021/04/07 09:38:37;;;;;;;2.37;2.17;;;;;;;5.97;47.51;95549.81;5031406;28;20675;-81
2021/04/07 09:41:08;;;;;;;1.60;1.50;;;;;;;6.34;46.20;95548.81;5030810;28;20271;-82
2021/04/07 09:43:36;;;;;;;2.27;1.60;;;;;;;6.92;47.10;95552.28;5035293;28;20284;-82
2021/04/07 09:46:02;;;;;;;2.33;1.60;;;;;;;6.94;47.03;95552.09;5046358;28;20228;-83
2021/04/07 09:48:37;;;;;;;2.80;2.03;;;;;;;7.07;46.01;95551.69;5042491;28;20193;-82
2021/04/07 09:51:23;;;;;;;2.97;2.20;;;;;;;7.26;46.33;95551.41;5049879;28;20217;-82
2021/04/07 09:53:50;;;;;;;2.53;2.20;;;;;;;7.64;46.61;95550.03;5030120;28;20237;-82
2021/04/07 09:56:18;;;;;;;2.30;2.10;;;;;;;7.52;43.44;95543.59;5030693;28;20230;-82
2021/04/07 09:58:47;;;;;;;2.53;2.33;;;;;;;6.76;43.92;95556.50;5040276;28;20705;-82
2021/04/07 10:01:14;;;;;;;3.50;2.27;;;;;;;5.93;44.70;95580.97;5033822;28;20229;-82
2021/04/07 10:03:48;;;;;;;9.60;2.53;;;;;;;4.77;55.68;95596.97;5030564;28;20202;-81
2021/04/07 10:06:19;;;;;;;4.33;2.07;;;;;;;4.23;59.77;95606.13;5046232;28;20201;-81
2021/04/07 10:08:45;;;;;;;5.90;2.20;;;;;;;4.03;61.55;95607.09;5041580;28;20237;-81
2021/04/07 10:11:11;;;;;;;2.30;1.90;;;;;;;3.75;61.03;95608.72;5029375;28;20229;-82
2021/04/07 10:13:37;;;;;;;2.30;1.87;;;;;;;3.70;61.51;95615.94;5036349;28;20218;-81
2021/04/07 10:16:13;;;;;;;5.60;2.03;;;;;;;3.44;63.97;95621.56;5049829;28;20897;-82
2021/04/07 10:18:39;;;;;;;4.20;2.10;;;;;;;3.29;64.61;95612.66;5049492;28;20212;-82
2021/04/07 10:21:13;;;;;;;1.70;1.60;;;;;;;3.25;63.60;95608.78;5049356;28;20228;-82
2021/04/07 10:23:40;;;;;;;4.00;1.83;;;;;;;3.22;63.57;95603.16;5049887;28;20282;-81
2021/04/07 10:26:06;;;;;;;2.40;1.70;;;;;;;3.37;62.12;95591.66;5038822;28;20229;-81
2021/04/07 10:28:34;;;;;;;1.70;1.60;;;;;;;4.02;60.11;95585.91;5037634;28;20226;-81
2021/04/07 10:30:59;;;;;;;3.13;2.30;;;;;;;4.77;58.82;95574.84;5037954;28;20316;-82
2021/04/07 10:33:28;;;;;;;4.53;2.20;;;;;;;5.46;56.36;95576.84;5051404;28;20213;-82
2021/04/07 10:35:59;;;;;;;2.60;2.00;;;;;;;5.99;54.63;95585.47;5041850;28;20275;-82
2021/04/07 10:38:29;;;;;;;2.53;2.00;;;;;;;5.56;54.67;95592.13;5029282;28;20230;-82
2021/04/07 10:40:59;;;;;;;3.33;2.30;;;;;;;5.19;53.75;95600.69;5029717;28;20707;-81
2021/04/07 10:43:30;;;;;;;3.87;2.70;;;;;;;4.74;58.47;95617.66;5032964;28;20226;-78
2021/04/07 10:45:57;;;;;;;4.10;2.40;;;;;;;4.30;61.40;95614.81;5030524;28;20229;-81
2021/04/07 10:48:24;;;;;;;3.50;2.30;;;;;;;3.95;62.79;95614.59;5047274;28;20226;-80
2021/04/07 10:50:50;;;;;;;3.83;2.47;;;;;;;3.94;63.58;95631.63;5048005;28;20221;-79
2021/04/07 10:53:26;;;;;;;2.50;2.30;;;;;;;3.93;61.80;95613.94;5049749;28;20657;-79
2021/04/07 10:55:52;;;;;;;3.53;2.43;;;;;;;4.40;60.50;95618.16;5038831;28;20230;-81
2021/04/07 10:58:26;;;;;;;4.00;2.30;;;;;;;4.85;54.67;95604.72;5029977;28;20359;-80
2021/04/07 11:00:55;;;;;;;4.10;2.00;;;;;;;5.34;51.77;95595.06;5030365;28;20218;-78
2021/04/07 11:03:31;;;;;;;3.17;1.80;;;;;;;5.36;49.22;95601.66;5037435;28;20205;-82
2021/04/07 11:05:57;;;;;;;2.70;1.73;;;;;;;5.20;51.34;95602.25;5046065;28;20214;-80
2021/04/07 11:08:34;;;;;;;1.80;1.50;;;;;;;4.75;50.28;95601.41;5036410;28;20283;-82
2021/04/07 11:11:00;;;;;;;1.70;1.60;;;;;;;4.67;50.05;95606.41;5048056;28;20866;-82
2021/04/07 11:13:28;;;;;;;1.87;1.47;;;;;;;4.98;48.87;95601.84;5033325;28;20217;-82
2021/04/07 11:15:54;;;;;;;2.33;1.50;;;;;;;5.13;48.82;95603.78;5043778;28;20208;-81
2021/04/07 11:18:28;;;;;;;3.47;1.80;;;;;;;5.72;49.04;95607.59;5033621;28;20206;-82
2021/04/07 11:20:54;;;;;;;2.97;1.50;;;;;;;6.03;48.34;95597.00;5051950;28;20220;-82
2021/04/07 11:23:20;;;;;;;4.83;1.77;;;;;;;6.34;46.80;95597.41;5043036;28;20228;-82
2021/04/07 11:25:47;;;;;;;2.17;1.40;;;;;;;6.25;46.41;95596.53;5037198;28;20236;-82
2021/04/07 11:28:16;;;;;;;2.97;1.70;;;;;;;5.95;45.35;95591.84;5053188;28;20308;-82
2021/04/07 11:30:56;;;;;;;9.37;6.23;;;;;;;5.89;46.39;95593.22;5034255;28;20696;-82
2021/04/07 11:33:25;;;;;;;2.77;2.00;;;;;;;5.77;44.16;95592.59;5033702;28;20261;-82
2021/04/07 11:35:56;;;;;;;5.07;1.40;;;;;;;5.99;42.38;95604.16;5049885;28;20728;-82
2021/04/07 11:38:22;;;;;;;2.20;1.30;;;;;;;6.36;40.59;95593.72;5036003;28;20312;-82
2021/04/07 11:41:10;;;;;;;1.30;1.20;;;;;;;6.50;42.21;95600.06;5036195;28;20283;-81
2021/04/07 11:44:23;;;;;;;2.03;1.30;;;;;;;6.40;41.29;95600.13;5042828;28;20222;-82